Terminal Aerodrome Forecast
Issued by NWS Bismarck, ND

Home | Current Version | Previous Version | Text Only | Print | Product List | Glossary Off
Versions: 1 2 3 4 5 6 7 8 9 10 11 12 13 14 15 16 17 18

188
FTUS43 KBIS 061126
TAFBIS
TAF
KBIS 061126Z 0612/0712 23006KT P6SM SCT100 BKN150 WS020/29035KT
     FM061800 27015KT P6SM BKN150 WS020/29045KT
     FM062300 28022G31KT P6SM SCT070 SCT100 WS020/28050KT
     FM070100 28024G34KT P6SM SCT150
     FM071000 30027G37KT P6SM BKN070=

USA.gov is the U.S. government's official web portal to all federal, state and local government web resources and services.